sensor_id;sensor_type;location;lat;lon;timestamp;temperature;humidity
909;DHT22;441;51.192;6.788;2023-02-26T00:01:18;21.30;50.40
909;DHT22;441;51.192;6.788;2023-02-26T00:03:48;21.20;50.50
909;DHT22;441;51.192;6.788;2023-02-26T00:06:15;21.20;50.50
909;DHT22;441;51.192;6.788;2023-02-26T00:08:41;21.20;50.70
909;DHT22;441;51.192;6.788;2023-02-26T00:11:10;21.10;50.60
909;DHT22;441;51.192;6.788;2023-02-26T00:13:39;21.10;50.70
909;DHT22;441;51.192;6.788;2023-02-26T00:16:14;21.10;50.70
909;DHT22;441;51.192;6.788;2023-02-26T00:18:46;21.10;50.80
909;DHT22;441;51.192;6.788;2023-02-26T00:21:15;21.00;50.80
909;DHT22;441;51.192;6.788;2023-02-26T00:23:43;21.00;50.80
909;DHT22;441;51.192;6.788;2023-02-26T00:26:10;21.00;50.90
909;DHT22;441;51.192;6.788;2023-02-26T00:28:37;20.90;50.80
909;DHT22;441;51.192;6.788;2023-02-26T00:31:05;20.90;50.80
909;DHT22;441;51.192;6.788;2023-02-26T00:33:32;20.90;50.80
909;DHT22;441;51.192;6.788;2023-02-26T00:36:14;20.90;50.80
909;DHT22;441;51.192;6.788;2023-02-26T00:38:48;20.90;50.80
909;DHT22;441;51.192;6.788;2023-02-26T00:41:18;20.80;50.70
909;DHT22;441;51.192;6.788;2023-02-26T00:43:45;20.80;50.80
909;DHT22;441;51.192;6.788;2023-02-26T00:46:19;20.80;50.80
909;DHT22;441;51.192;6.788;2023-02-26T00:48:54;20.80;50.90
909;DHT22;441;51.192;6.788;2023-02-26T00:51:27;20.80;51.00
909;DHT22;441;51.192;6.788;2023-02-26T00:54:01;20.80;51.00
909;DHT22;441;51.192;6.788;2023-02-26T00:56:29;20.70;50.90
909;DHT22;441;51.192;6.788;2023-02-26T00:58:56;20.70;50.90
909;DHT22;441;51.192;6.788;2023-02-26T01:01:23;20.70;50.90
909;DHT22;441;51.192;6.788;2023-02-26T01:03:50;20.70;50.90
909;DHT22;441;51.192;6.788;2023-02-26T01:06:19;20.70;50.80
909;DHT22;441;51.192;6.788;2023-02-26T01:08:52;20.70;50.90
909;DHT22;441;51.192;6.788;2023-02-26T01:11:21;20.60;50.90
909;DHT22;441;51.192;6.788;2023-02-26T01:13:48;20.70;51.00
909;DHT22;441;51.192;6.788;2023-02-26T01:16:19;20.60;51.00
909;DHT22;441;51.192;6.788;2023-02-26T01:18:51;20.70;51.10
909;DHT22;441;51.192;6.788;2023-02-26T01:21:27;20.60;51.00
909;DHT22;441;51.192;6.788;2023-02-26T01:23:58;20.60;51.00
909;DHT22;441;51.192;6.788;2023-02-26T01:26:27;20.60;50.90
909;DHT22;441;51.192;6.788;2023-02-26T01:28:55;20.60;51.00
909;DHT22;441;51.192;6.788;2023-02-26T01:31:33;20.60;51.00
909;DHT22;441;51.192;6.788;2023-02-26T01:34:08;20.60;51.00
909;DHT22;441;51.192;6.788;2023-02-26T01:36:41;20.60;51.00
909;DHT22;441;51.192;6.788;2023-02-26T01:39:17;20.60;51.00
909;DHT22;441;51.192;6.788;2023-02-26T01:41:46;20.60;51.00
909;DHT22;441;51.192;6.788;2023-02-26T01:44:21;20.50;50.90
909;DHT22;441;51.192;6.788;2023-02-26T01:46:59;20.50;50.90
909;DHT22;441;51.192;6.788;2023-02-26T01:49:28;20.50;50.90
909;DHT22;441;51.192;6.788;2023-02-26T01:51:57;20.50;50.90
909;DHT22;441;51.192;6.788;2023-02-26T01:54:29;20.50;50.90
909;DHT22;441;51.192;6.788;2023-02-26T01:56:59;20.50;50.90
909;DHT22;441;51.192;6.788;2023-02-26T01:59:30;20.50;50.90
909;DHT22;441;51.192;6.788;2023-02-26T02:01:59;20.50;50.90
909;DHT22;441;51.192;6.788;2023-02-26T02:04:29;20.50;51.00
909;DHT22;441;51.192;6.788;2023-02-26T02:06:57;20.50;50.90
909;DHT22;441;51.192;6.788;2023-02-26T02:09:26;20.40;50.90
909;DHT22;441;51.192;6.788;2023-02-26T02:12:06;20.40;50.90
909;DHT22;441;51.192;6.788;2023-02-26T02:14:42;20.40;50.90
909;DHT22;441;51.192;6.788;2023-02-26T02:17:15;20.40;50.90
909;DHT22;441;51.192;6.788;2023-02-26T02:20:19;20.40;50.90
909;DHT22;441;51.192;6.788;2023-02-26T02:23:09;20.40;50.90
909;DHT22;441;51.192;6.788;2023-02-26T02:26:11;20.40;50.90
909;DHT22;441;51.192;6.788;2023-02-26T02:28:52;20.40;50.90
909;DHT22;441;51.192;6.788;2023-02-26T02:31:27;20.40;50.90
909;DHT22;441;51.192;6.788;2023-02-26T02:34:01;20.40;51.00
909;DHT22;441;51.192;6.788;2023-02-26T02:36:33;20.40;50.90
909;DHT22;441;51.192;6.788;2023-02-26T02:39:06;20.40;50.90
909;DHT22;441;51.192;6.788;2023-02-26T02:41:38;20.40;50.90
909;DHT22;441;51.192;6.788;2023-02-26T02:44:10;20.30;50.80
909;DHT22;441;51.192;6.788;2023-02-26T02:46:41;20.30;50.80
909;DHT22;441;51.192;6.788;2023-02-26T02:49:11;20.40;50.80
909;DHT22;441;51.192;6.788;2023-02-26T02:51:41;20.30;50.80
909;DHT22;441;51.192;6.788;2023-02-26T02:54:12;20.30;50.80
909;DHT22;441;51.192;6.788;2023-02-26T02:56:44;20.30;50.80
909;DHT22;441;51.192;6.788;2023-02-26T02:59:17;20.30;50.80
909;DHT22;441;51.192;6.788;2023-02-26T03:01:47;20.30;50.90
909;DHT22;441;51.192;6.788;2023-02-26T03:04:16;20.30;50.80
909;DHT22;441;51.192;6.788;2023-02-26T03:09:10;20.30;50.90
909;DHT22;441;51.192;6.788;2023-02-26T03:11:38;20.30;50.80
909;DHT22;441;51.192;6.788;2023-02-26T03:14:05;20.20;50.80
909;DHT22;441;51.192;6.788;2023-02-26T03:16:57;20.20;50.70
909;DHT22;441;51.192;6.788;2023-02-26T03:19:30;20.20;50.80
909;DHT22;441;51.192;6.788;2023-02-26T03:22:06;20.30;50.90
909;DHT22;441;51.192;6.788;2023-02-26T03:28:02;20.30;50.90
909;DHT22;441;51.192;6.788;2023-02-26T03:30:34;20.30;50.90
909;DHT22;441;51.192;6.788;2023-02-26T03:33:09;20.30;50.90
909;DHT22;441;51.192;6.788;2023-02-26T03:35:45;20.20;50.80
909;DHT22;441;51.192;6.788;2023-02-26T03:38:18;20.20;50.80
909;DHT22;441;51.192;6.788;2023-02-26T03:40:52;20.20;50.90
909;DHT22;441;51.192;6.788;2023-02-26T03:43:26;20.20;50.90
909;DHT22;441;51.192;6.788;2023-02-26T03:46:00;20.20;50.80
909;DHT22;441;51.192;6.788;2023-02-26T03:48:31;20.20;50.80
909;DHT22;441;51.192;6.788;2023-02-26T03:51:03;20.20;50.80
909;DHT22;441;51.192;6.788;2023-02-26T03:53:33;20.20;50.80
909;DHT22;441;51.192;6.788;2023-02-26T03:56:05;20.20;50.80
909;DHT22;441;51.192;6.788;2023-02-26T03:58:33;20.20;50.80
909;DHT22;441;51.192;6.788;2023-02-26T04:01:03;20.20;50.70
909;DHT22;441;51.192;6.788;2023-02-26T04:03:38;20.20;50.70
909;DHT22;441;51.192;6.788;2023-02-26T04:06:06;20.20;50.60
909;DHT22;441;51.192;6.788;2023-02-26T04:08:33;20.20;50.50
909;DHT22;441;51.192;6.788;2023-02-26T04:11:05;20.20;50.50
909;DHT22;441;51.192;6.788;2023-02-26T04:13:33;20.20;50.60
909;DHT22;441;51.192;6.788;2023-02-26T04:16:00;20.20;50.50
909;DHT22;441;51.192;6.788;2023-02-26T04:18:27;20.20;50.40
909;DHT22;441;51.192;6.788;2023-02-26T04:20:55;20.30;50.50
909;DHT22;441;51.192;6.788;2023-02-26T04:23:22;20.30;50.60
909;DHT22;441;51.192;6.788;2023-02-26T04:25:49;20.20;50.50
909;DHT22;441;51.192;6.788;2023-02-26T04:28:16;20.30;50.60
909;DHT22;441;51.192;6.788;2023-02-26T04:30:43;20.20;50.50
909;DHT22;441;51.192;6.788;2023-02-26T04:33:11;20.30;50.60
909;DHT22;441;51.192;6.788;2023-02-26T04:35:38;20.30;50.50
909;DHT22;441;51.192;6.788;2023-02-26T04:38:06;20.20;50.50
909;DHT22;441;51.192;6.788;2023-02-26T04:40:33;20.30;50.50
909;DHT22;441;51.192;6.788;2023-02-26T04:43:00;20.30;50.50
909;DHT22;441;51.192;6.788;2023-02-26T04:45:27;20.30;50.50
909;DHT22;441;51.192;6.788;2023-02-26T04:47:54;20.30;50.40
909;DHT22;441;51.192;6.788;2023-02-26T04:50:21;20.30;50.40
909;DHT22;441;51.192;6.788;2023-02-26T04:52:48;20.40;50.50
909;DHT22;441;51.192;6.788;2023-02-26T04:55:17;20.30;50.30
909;DHT22;441;51.192;6.788;2023-02-26T04:57:43;20.30;50.30
909;DHT22;441;51.192;6.788;2023-02-26T05:00:11;20.30;50.30
909;DHT22;441;51.192;6.788;2023-02-26T05:02:39;20.30;50.30
909;DHT22;441;51.192;6.788;2023-02-26T05:05:07;20.40;50.40
909;DHT22;441;51.192;6.788;2023-02-26T05:07:34;20.40;50.40
909;DHT22;441;51.192;6.788;2023-02-26T05:10:01;20.40;50.40
909;DHT22;441;51.192;6.788;2023-02-26T05:12:29;20.40;50.40
909;DHT22;441;51.192;6.788;2023-02-26T05:14:56;20.40;50.30
909;DHT22;441;51.192;6.788;2023-02-26T05:17:23;20.40;50.30
909;DHT22;441;51.192;6.788;2023-02-26T05:19:49;20.40;50.30
909;DHT22;441;51.192;6.788;2023-02-26T05:22:17;20.40;50.20
909;DHT22;441;51.192;6.788;2023-02-26T05:24:44;20.40;50.30
909;DHT22;441;51.192;6.788;2023-02-26T05:27:11;20.40;50.30
909;DHT22;441;51.192;6.788;2023-02-26T05:29:39;20.40;50.30
909;DHT22;441;51.192;6.788;2023-02-26T05:32:09;20.40;50.30
909;DHT22;441;51.192;6.788;2023-02-26T05:34:36;20.40;50.20
909;DHT22;441;51.192;6.788;2023-02-26T05:37:03;20.40;50.30
909;DHT22;441;51.192;6.788;2023-02-26T05:39:30;20.40;50.30
909;DHT22;441;51.192;6.788;2023-02-26T05:41:58;20.40;50.30
909;DHT22;441;51.192;6.788;2023-02-26T05:44:25;20.40;50.30
909;DHT22;441;51.192;6.788;2023-02-26T05:46:54;20.30;50.20
909;DHT22;441;51.192;6.788;2023-02-26T05:49:21;20.40;50.20
909;DHT22;441;51.192;6.788;2023-02-26T05:51:48;20.30;50.10
909;DHT22;441;51.192;6.788;2023-02-26T05:54:15;20.40;50.20
909;DHT22;441;51.192;6.788;2023-02-26T05:56:41;20.30;50.10
909;DHT22;441;51.192;6.788;2023-02-26T05:59:09;20.30;50.10
909;DHT22;441;51.192;6.788;2023-02-26T06:01:36;20.30;50.10
909;DHT22;441;51.192;6.788;2023-02-26T06:04:05;20.30;50.10
909;DHT22;441;51.192;6.788;2023-02-26T06:06:32;20.30;50.00
909;DHT22;441;51.192;6.788;2023-02-26T06:08:59;20.30;50.10
909;DHT22;441;51.192;6.788;2023-02-26T06:11:26;20.30;50.10
909;DHT22;441;51.192;6.788;2023-02-26T06:13:54;20.30;50.10
909;DHT22;441;51.192;6.788;2023-02-26T06:16:21;20.30;50.10
909;DHT22;441;51.192;6.788;2023-02-26T06:18:48;20.30;50.10
909;DHT22;441;51.192;6.788;2023-02-26T06:21:16;20.30;50.10
909;DHT22;441;51.192;6.788;2023-02-26T06:23:44;20.20;50.00
909;DHT22;441;51.192;6.788;2023-02-26T06:26:10;20.30;50.10
909;DHT22;441;51.192;6.788;2023-02-26T06:28:37;20.20;50.00
909;DHT22;441;51.192;6.788;2023-02-26T06:31:04;20.20;50.00
909;DHT22;441;51.192;6.788;2023-02-26T06:33:31;20.30;50.10
909;DHT22;441;51.192;6.788;2023-02-26T06:35:58;20.20;49.90
909;DHT22;441;51.192;6.788;2023-02-26T06:38:26;20.20;49.90
909;DHT22;441;51.192;6.788;2023-02-26T06:40:54;20.20;49.90
909;DHT22;441;51.192;6.788;2023-02-26T06:43:21;20.20;49.80
909;DHT22;441;51.192;6.788;2023-02-26T06:45:48;20.20;49.80
909;DHT22;441;51.192;6.788;2023-02-26T06:48:15;20.20;49.80
909;DHT22;441;51.192;6.788;2023-02-26T06:50:42;20.20;49.80
909;DHT22;441;51.192;6.788;2023-02-26T06:53:09;20.20;50.20
909;DHT22;441;51.192;6.788;2023-02-26T06:55:42;20.20;49.70
909;DHT22;441;51.192;6.788;2023-02-26T06:58:09;20.20;49.70
909;DHT22;441;51.192;6.788;2023-02-26T07:00:36;20.20;49.70
909;DHT22;441;51.192;6.788;2023-02-26T07:03:03;20.20;49.60
909;DHT22;441;51.192;6.788;2023-02-26T07:05:30;20.20;49.60
909;DHT22;441;51.192;6.788;2023-02-26T07:07:57;20.20;49.70
909;DHT22;441;51.192;6.788;2023-02-26T07:10:24;20.10;49.60
909;DHT22;441;51.192;6.788;2023-02-26T07:12:52;20.10;49.50
909;DHT22;441;51.192;6.788;2023-02-26T07:15:19;20.10;49.50
909;DHT22;441;51.192;6.788;2023-02-26T07:17:46;20.10;49.40
909;DHT22;441;51.192;6.788;2023-02-26T07:20:13;20.10;49.40
909;DHT22;441;51.192;6.788;2023-02-26T07:22:40;20.10;49.40
909;DHT22;441;51.192;6.788;2023-02-26T07:25:07;20.10;49.40
909;DHT22;441;51.192;6.788;2023-02-26T07:27:34;20.10;49.30
909;DHT22;441;51.192;6.788;2023-02-26T07:30:05;20.10;49.40
909;DHT22;441;51.192;6.788;2023-02-26T07:32:32;20.10;49.40
909;DHT22;441;51.192;6.788;2023-02-26T07:34:59;20.10;49.30
909;DHT22;441;51.192;6.788;2023-02-26T07:37:26;20.20;49.50
909;DHT22;441;51.192;6.788;2023-02-26T07:39:53;20.20;49.50
909;DHT22;441;51.192;6.788;2023-02-26T07:42:20;20.20;49.40
909;DHT22;441;51.192;6.788;2023-02-26T07:44:47;20.20;49.40
909;DHT22;441;51.192;6.788;2023-02-26T07:47:15;20.20;49.40
909;DHT22;441;51.192;6.788;2023-02-26T07:49:42;20.30;49.40
909;DHT22;441;51.192;6.788;2023-02-26T07:52:09;20.20;49.20
909;DHT22;441;51.192;6.788;2023-02-26T07:54:36;20.30;49.30
909;DHT22;441;51.192;6.788;2023-02-26T07:57:03;20.30;49.40
909;DHT22;441;51.192;6.788;2023-02-26T07:59:30;20.30;49.30
909;DHT22;441;51.192;6.788;2023-02-26T08:01:57;20.30;49.30
909;DHT22;441;51.192;6.788;2023-02-26T08:04:26;20.30;49.20
909;DHT22;441;51.192;6.788;2023-02-26T08:06:52;20.30;49.30
909;DHT22;441;51.192;6.788;2023-02-26T08:09:21;20.30;49.20
909;DHT22;441;51.192;6.788;2023-02-26T08:11:48;20.40;49.30
909;DHT22;441;51.192;6.788;2023-02-26T08:14:15;20.30;49.10
909;DHT22;441;51.192;6.788;2023-02-26T08:16:42;20.40;49.20
909;DHT22;441;51.192;6.788;2023-02-26T08:19:09;20.30;49.00
909;DHT22;441;51.192;6.788;2023-02-26T08:21:37;20.30;48.90
909;DHT22;441;51.192;6.788;2023-02-26T08:24:05;20.40;49.10
909;DHT22;441;51.192;6.788;2023-02-26T08:26:34;20.30;48.90
909;DHT22;441;51.192;6.788;2023-02-26T08:29:02;20.40;49.00
909;DHT22;441;51.192;6.788;2023-02-26T08:31:29;20.40;48.80
909;DHT22;441;51.192;6.788;2023-02-26T08:33:58;20.40;48.80
909;DHT22;441;51.192;6.788;2023-02-26T08:36:25;20.40;48.80
909;DHT22;441;51.192;6.788;2023-02-26T08:38:54;20.40;48.80
909;DHT22;441;51.192;6.788;2023-02-26T08:41:20;20.40;49.10
909;DHT22;441;51.192;6.788;2023-02-26T08:43:47;20.40;48.80
909;DHT22;441;51.192;6.788;2023-02-26T08:46:14;20.60;49.80
909;DHT22;441;51.192;6.788;2023-02-26T08:48:41;20.60;50.00
909;DHT22;441;51.192;6.788;2023-02-26T08:51:08;20.70;48.90
909;DHT22;441;51.192;6.788;2023-02-26T08:53:35;20.80;48.80
909;DHT22;441;51.192;6.788;2023-02-26T08:56:04;20.80;48.50
909;DHT22;441;51.192;6.788;2023-02-26T08:58:31;20.90;48.20
909;DHT22;441;51.192;6.788;2023-02-26T09:00:58;20.90;47.90
909;DHT22;441;51.192;6.788;2023-02-26T09:03:25;21.00;48.00
909;DHT22;441;51.192;6.788;2023-02-26T09:05:51;21.00;47.60
909;DHT22;441;51.192;6.788;2023-02-26T09:08:18;20.90;47.40
909;DHT22;441;51.192;6.788;2023-02-26T09:10:46;20.90;47.30
909;DHT22;441;51.192;6.788;2023-02-26T09:13:14;21.00;47.30
909;DHT22;441;51.192;6.788;2023-02-26T09:15:41;21.00;47.40
909;DHT22;441;51.192;6.788;2023-02-26T09:18:08;21.10;47.60
909;DHT22;441;51.192;6.788;2023-02-26T09:20:40;21.10;47.30
909;DHT22;441;51.192;6.788;2023-02-26T09:23:07;21.10;47.20
909;DHT22;441;51.192;6.788;2023-02-26T09:25:34;21.20;47.10
909;DHT22;441;51.192;6.788;2023-02-26T09:28:01;21.10;46.90
909;DHT22;441;51.192;6.788;2023-02-26T09:30:29;21.20;47.70
909;DHT22;441;51.192;6.788;2023-02-26T09:32:56;21.30;48.10
909;DHT22;441;51.192;6.788;2023-02-26T09:35:23;21.40;48.00
909;DHT22;441;51.192;6.788;2023-02-26T09:37:50;21.40;47.60
909;DHT22;441;51.192;6.788;2023-02-26T09:40:23;21.50;47.40
909;DHT22;441;51.192;6.788;2023-02-26T09:43:18;21.50;47.30
909;DHT22;441;51.192;6.788;2023-02-26T09:45:50;21.60;47.50
909;DHT22;441;51.192;6.788;2023-02-26T09:48:19;21.60;47.20
909;DHT22;441;51.192;6.788;2023-02-26T09:50:51;21.60;47.10
909;DHT22;441;51.192;6.788;2023-02-26T09:53:20;21.70;47.00
909;DHT22;441;51.192;6.788;2023-02-26T09:55:49;21.70;46.90
909;DHT22;441;51.192;6.788;2023-02-26T09:58:19;21.70;47.00
909;DHT22;441;51.192;6.788;2023-02-26T10:00:55;21.80;47.10
909;DHT22;441;51.192;6.788;2023-02-26T10:03:29;21.80;46.90
909;DHT22;441;51.192;6.788;2023-02-26T10:06:14;21.80;46.70
909;DHT22;441;51.192;6.788;2023-02-26T10:08:48;21.80;46.50
909;DHT22;441;51.192;6.788;2023-02-26T10:11:20;21.80;46.50
909;DHT22;441;51.192;6.788;2023-02-26T10:13:52;21.90;46.70
909;DHT22;441;51.192;6.788;2023-02-26T10:16:25;21.90;46.50
909;DHT22;441;51.192;6.788;2023-02-26T10:18:56;21.90;46.40
909;DHT22;441;51.192;6.788;2023-02-26T10:21:31;21.90;46.30
909;DHT22;441;51.192;6.788;2023-02-26T10:24:02;21.90;46.10
909;DHT22;441;51.192;6.788;2023-02-26T10:26:34;21.90;46.10
909;DHT22;441;51.192;6.788;2023-02-26T10:29:09;21.90;46.00
909;DHT22;441;51.192;6.788;2023-02-26T10:31:48;21.90;46.10
909;DHT22;441;51.192;6.788;2023-02-26T10:34:22;22.00;46.30
909;DHT22;441;51.192;6.788;2023-02-26T10:36:55;22.00;46.20
909;DHT22;441;51.192;6.788;2023-02-26T10:39:28;22.00;46.20
909;DHT22;441;51.192;6.788;2023-02-26T10:42:00;22.00;46.10
909;DHT22;441;51.192;6.788;2023-02-26T10:44:33;22.10;46.20
909;DHT22;441;51.192;6.788;2023-02-26T10:47:11;22.10;46.20
909;DHT22;441;51.192;6.788;2023-02-26T10:49:55;22.10;45.90
909;DHT22;441;51.192;6.788;2023-02-26T10:52:26;22.10;45.90
909;DHT22;441;51.192;6.788;2023-02-26T10:55:03;22.00;45.80
909;DHT22;441;51.192;6.788;2023-02-26T10:57:34;22.00;45.80
909;DHT22;441;51.192;6.788;2023-02-26T11:00:02;22.10;45.80
909;DHT22;441;51.192;6.788;2023-02-26T11:02:36;22.20;45.80
909;DHT22;441;51.192;6.788;2023-02-26T11:05:07;22.20;46.30
909;DHT22;441;51.192;6.788;2023-02-26T11:07:40;22.20;46.00
909;DHT22;441;51.192;6.788;2023-02-26T11:10:15;22.20;46.00
909;DHT22;441;51.192;6.788;2023-02-26T11:12:42;22.20;46.80
909;DHT22;441;51.192;6.788;2023-02-26T11:15:13;22.20;47.40
909;DHT22;441;51.192;6.788;2023-02-26T11:17:41;22.20;47.10
909;DHT22;441;51.192;6.788;2023-02-26T11:20:17;22.20;46.90
909;DHT22;441;51.192;6.788;2023-02-26T11:22:47;22.20;46.80
909;DHT22;441;51.192;6.788;2023-02-26T11:25:18;22.20;46.70
909;DHT22;441;51.192;6.788;2023-02-26T11:27:49;22.30;46.90
909;DHT22;441;51.192;6.788;2023-02-26T11:30:21;22.30;46.80
909;DHT22;441;51.192;6.788;2023-02-26T11:32:55;22.40;46.70
909;DHT22;441;51.192;6.788;2023-02-26T11:35:24;22.40;46.50
909;DHT22;441;51.192;6.788;2023-02-26T11:37:54;22.40;46.50
909;DHT22;441;51.192;6.788;2023-02-26T11:40:31;22.30;46.40
909;DHT22;441;51.192;6.788;2023-02-26T11:43:04;22.40;46.50
909;DHT22;441;51.192;6.788;2023-02-26T11:45:35;22.30;46.40
909;DHT22;441;51.192;6.788;2023-02-26T11:48:06;22.30;46.50
909;DHT22;441;51.192;6.788;2023-02-26T11:50:39;22.30;46.50
909;DHT22;441;51.192;6.788;2023-02-26T11:53:29;22.40;46.50
909;DHT22;441;51.192;6.788;2023-02-26T11:56:02;22.40;46.70
909;DHT22;441;51.192;6.788;2023-02-26T11:58:33;22.40;46.20
909;DHT22;441;51.192;6.788;2023-02-26T12:01:02;22.40;46.00
909;DHT22;441;51.192;6.788;2023-02-26T12:03:33;22.40;45.90
909;DHT22;441;51.192;6.788;2023-02-26T12:06:04;22.50;46.00
909;DHT22;441;51.192;6.788;2023-02-26T12:08:33;22.40;46.00
909;DHT22;441;51.192;6.788;2023-02-26T12:11:18;22.50;46.20
909;DHT22;441;51.192;6.788;2023-02-26T12:14:01;22.40;46.40
909;DHT22;441;51.192;6.788;2023-02-26T12:16:36;22.40;46.50
909;DHT22;441;51.192;6.788;2023-02-26T12:19:13;22.40;46.60
909;DHT22;441;51.192;6.788;2023-02-26T12:22:02;22.50;46.80
909;DHT22;441;51.192;6.788;2023-02-26T12:27:49;22.50;47.50
909;DHT22;441;51.192;6.788;2023-02-26T12:33:20;22.60;50.20
909;DHT22;441;51.192;6.788;2023-02-26T12:36:02;22.60;50.40
909;DHT22;441;51.192;6.788;2023-02-26T12:38:38;22.60;51.00
909;DHT22;441;51.192;6.788;2023-02-26T12:41:24;22.60;51.40
909;DHT22;441;51.192;6.788;2023-02-26T12:43:56;22.60;51.10
909;DHT22;441;51.192;6.788;2023-02-26T12:46:33;22.60;50.80
909;DHT22;441;51.192;6.788;2023-02-26T12:49:32;22.70;50.70
909;DHT22;441;51.192;6.788;2023-02-26T12:52:18;22.60;50.40
909;DHT22;441;51.192;6.788;2023-02-26T12:55:02;22.60;50.50
909;DHT22;441;51.192;6.788;2023-02-26T12:57:57;22.60;50.20
909;DHT22;441;51.192;6.788;2023-02-26T13:00:42;22.60;50.00
909;DHT22;441;51.192;6.788;2023-02-26T13:06:50;22.60;49.80
909;DHT22;441;51.192;6.788;2023-02-26T13:09:33;22.60;49.90
909;DHT22;441;51.192;6.788;2023-02-26T13:12:13;22.60;50.00
909;DHT22;441;51.192;6.788;2023-02-26T13:14:50;22.60;49.40
909;DHT22;441;51.192;6.788;2023-02-26T13:17:25;22.60;49.10
909;DHT22;441;51.192;6.788;2023-02-26T13:19:56;22.60;49.20
909;DHT22;441;51.192;6.788;2023-02-26T13:22:27;22.50;48.50
909;DHT22;441;51.192;6.788;2023-02-26T13:25:00;22.50;48.70
909;DHT22;441;51.192;6.788;2023-02-26T13:27:31;22.50;48.50
909;DHT22;441;51.192;6.788;2023-02-26T13:30:13;22.50;48.30
909;DHT22;441;51.192;6.788;2023-02-26T13:32:43;22.50;48.60
909;DHT22;441;51.192;6.788;2023-02-26T13:35:19;22.60;48.80
909;DHT22;441;51.192;6.788;2023-02-26T13:37:49;22.60;48.50
909;DHT22;441;51.192;6.788;2023-02-26T13:40:37;22.60;48.20
909;DHT22;441;51.192;6.788;2023-02-26T13:43:21;22.60;48.10
909;DHT22;441;51.192;6.788;2023-02-26T13:45:57;22.60;47.90
909;DHT22;441;51.192;6.788;2023-02-26T13:48:36;22.60;47.90
909;DHT22;441;51.192;6.788;2023-02-26T13:51:09;22.60;47.90
909;DHT22;441;51.192;6.788;2023-02-26T13:53:52;22.60;47.80
909;DHT22;441;51.192;6.788;2023-02-26T13:56:47;22.50;47.70
909;DHT22;441;51.192;6.788;2023-02-26T13:59:36;22.60;47.70
909;DHT22;441;51.192;6.788;2023-02-26T14:02:43;22.50;47.40
909;DHT22;441;51.192;6.788;2023-02-26T14:05:34;22.60;47.40
909;DHT22;441;51.192;6.788;2023-02-26T14:08:19;22.60;47.50
909;DHT22;441;51.192;6.788;2023-02-26T14:10:55;22.60;47.20
909;DHT22;441;51.192;6.788;2023-02-26T14:13:32;22.60;47.10
909;DHT22;441;51.192;6.788;2023-02-26T14:16:01;22.60;47.00
909;DHT22;441;51.192;6.788;2023-02-26T14:18:35;22.60;47.80
909;DHT22;441;51.192;6.788;2023-02-26T14:21:37;22.60;47.00
909;DHT22;441;51.192;6.788;2023-02-26T14:24:12;22.60;46.70
909;DHT22;441;51.192;6.788;2023-02-26T14:26:44;22.60;47.60
909;DHT22;441;51.192;6.788;2023-02-26T14:29:20;22.60;47.10
909;DHT22;441;51.192;6.788;2023-02-26T14:32:03;22.70;46.60
909;DHT22;441;51.192;6.788;2023-02-26T14:34:33;22.70;46.40
909;DHT22;441;51.192;6.788;2023-02-26T14:37:03;22.70;46.70
909;DHT22;441;51.192;6.788;2023-02-26T14:39:35;22.70;46.40
909;DHT22;441;51.192;6.788;2023-02-26T14:42:05;22.70;46.30
909;DHT22;441;51.192;6.788;2023-02-26T14:44:38;22.60;46.10
909;DHT22;441;51.192;6.788;2023-02-26T14:47:06;22.60;46.00
909;DHT22;441;51.192;6.788;2023-02-26T14:49:35;22.60;46.00
909;DHT22;441;51.192;6.788;2023-02-26T14:52:28;22.60;45.90
909;DHT22;441;51.192;6.788;2023-02-26T14:55:17;22.60;45.80
909;DHT22;441;51.192;6.788;2023-02-26T14:57:55;22.70;46.00
909;DHT22;441;51.192;6.788;2023-02-26T15:00:32;22.60;45.80
909;DHT22;441;51.192;6.788;2023-02-26T15:03:42;22.60;45.80
909;DHT22;441;51.192;6.788;2023-02-26T15:06:25;22.70;45.90
909;DHT22;441;51.192;6.788;2023-02-26T15:09:07;22.70;46.30
909;DHT22;441;51.192;6.788;2023-02-26T15:11:48;22.70;46.80
909;DHT22;441;51.192;6.788;2023-02-26T15:14:44;22.70;46.80
909;DHT22;441;51.192;6.788;2023-02-26T15:17:27;22.60;45.80
909;DHT22;441;51.192;6.788;2023-02-26T15:20:06;22.60;45.80
909;DHT22;441;51.192;6.788;2023-02-26T15:22:53;22.60;45.70
909;DHT22;441;51.192;6.788;2023-02-26T15:25:29;22.60;46.20
909;DHT22;441;51.192;6.788;2023-02-26T15:27:56;22.70;46.10
909;DHT22;441;51.192;6.788;2023-02-26T15:30:24;22.70;46.20
909;DHT22;441;51.192;6.788;2023-02-26T15:32:57;22.70;46.10
909;DHT22;441;51.192;6.788;2023-02-26T15:35:27;22.70;45.80
909;DHT22;441;51.192;6.788;2023-02-26T15:37:57;22.70;45.80
909;DHT22;441;51.192;6.788;2023-02-26T15:40:27;22.70;45.60
909;DHT22;441;51.192;6.788;2023-02-26T15:42:56;22.70;45.70
909;DHT22;441;51.192;6.788;2023-02-26T15:45:26;22.70;45.50
909;DHT22;441;51.192;6.788;2023-02-26T15:47:57;22.70;45.70
909;DHT22;441;51.192;6.788;2023-02-26T15:50:27;22.70;45.60
909;DHT22;441;51.192;6.788;2023-02-26T15:52:58;22.70;45.50
909;DHT22;441;51.192;6.788;2023-02-26T15:55:30;22.60;45.20
909;DHT22;441;51.192;6.788;2023-02-26T15:57:58;22.70;45.30
909;DHT22;441;51.192;6.788;2023-02-26T16:00:25;22.60;45.00
909;DHT22;441;51.192;6.788;2023-02-26T16:02:54;22.60;45.00
909;DHT22;441;51.192;6.788;2023-02-26T16:05:24;22.60;45.00
909;DHT22;441;51.192;6.788;2023-02-26T16:07:51;22.60;45.10
909;DHT22;441;51.192;6.788;2023-02-26T16:10:28;22.60;45.30
909;DHT22;441;51.192;6.788;2023-02-26T16:12:58;22.70;45.50
909;DHT22;441;51.192;6.788;2023-02-26T16:15:30;22.80;45.00
909;DHT22;441;51.192;6.788;2023-02-26T16:17:58;22.70;44.90
909;DHT22;441;51.192;6.788;2023-02-26T16:20:36;22.70;44.90
909;DHT22;441;51.192;6.788;2023-02-26T16:23:06;22.70;45.40
909;DHT22;441;51.192;6.788;2023-02-26T16:25:35;22.70;45.30
909;DHT22;441;51.192;6.788;2023-02-26T16:28:05;22.70;45.80
909;DHT22;441;51.192;6.788;2023-02-26T16:30:34;22.60;45.30
909;DHT22;441;51.192;6.788;2023-02-26T16:33:03;22.60;45.60
909;DHT22;441;51.192;6.788;2023-02-26T16:35:36;22.70;45.80
909;DHT22;441;51.192;6.788;2023-02-26T16:38:11;22.70;45.70
909;DHT22;441;51.192;6.788;2023-02-26T16:40:40;22.70;45.50
909;DHT22;441;51.192;6.788;2023-02-26T16:43:34;22.70;45.80
909;DHT22;441;51.192;6.788;2023-02-26T16:46:04;22.70;45.40
909;DHT22;441;51.192;6.788;2023-02-26T16:48:35;22.60;45.30
909;DHT22;441;51.192;6.788;2023-02-26T16:51:09;22.60;45.70
909;DHT22;441;51.192;6.788;2023-02-26T16:53:41;22.60;45.50
909;DHT22;441;51.192;6.788;2023-02-26T16:56:11;22.70;45.70
909;DHT22;441;51.192;6.788;2023-02-26T16:58:41;22.80;45.70
909;DHT22;441;51.192;6.788;2023-02-26T17:01:13;22.90;45.60
909;DHT22;441;51.192;6.788;2023-02-26T17:03:40;22.90;45.50
909;DHT22;441;51.192;6.788;2023-02-26T17:06:12;23.00;45.50
909;DHT22;441;51.192;6.788;2023-02-26T17:08:46;23.00;45.40
909;DHT22;441;51.192;6.788;2023-02-26T17:11:22;23.10;45.50
909;DHT22;441;51.192;6.788;2023-02-26T17:14:09;23.10;45.40
909;DHT22;441;51.192;6.788;2023-02-26T17:16:38;23.20;45.50
909;DHT22;441;51.192;6.788;2023-02-26T17:19:05;23.20;45.50
909;DHT22;441;51.192;6.788;2023-02-26T17:21:40;23.20;45.40